Pagrindinis puslapis
METAR-TAF:

METAR-TAF

Oro uostai :

Campbeltown, Škotija

platuma: 55-26-14N, ilguma: 005-41-11W, Aukštis: 13 m

Dabartinis oras

Ataskaita buvo paskelbta 37 minutes, ne 10:20 UTC
Vėjas 15 kt iš Rytų
Temperatūra 11°C
Drėgmė 54%
Slėgis 1024 hPa
Matomumas 10 km arba daugiau
nėra debesų žemiau 1500 m ir nėra kamuolinių lietaus debesų

METAR: EGEC 211020Z 10015KT CAVOK 11/02 Q1024

Laikas: 11:57 (10:57 UTC)

Prognozė

Ataskaita buvo paskelbta 4 valandos ir 3 minutes, ne 06:54 UTC
Prognozė galioja nuo 21 metu 07 UTC su 21 metu 10 UTC
Vėjas 14 kt iš Rytų
Matomumas 10 km arba daugiau
Mažai debesys ne aukštis 3500 ft

TAF: EGEC 210654Z 2107/2110 08014KT 9999 FEW035

Orai ataskaitas ir orų prognozės (METAR, TAF).

turimą stotys yra geltonos ir raudonos taškus žemėlapyje.

Perkelti pele per norėdami pamatyti stoties vardą.

Tada spustelėkite, norėdami matyti oro stebėjimo ir prognozės.

Norėdami pakeisti žemėlapį: spustelėkite ant žalios mygtukų su juodo kryžiaus žemyn,; žalią mygtuką su brūkšneliu, jei norite nutolinti; arba žalių rodyklių gretimoms žemėlapius.


METAR-TAF: